Time;durP1;ratioP1;P1;durP2;ratioP2;P2;SDS_P1;SDS_P2;PMS_P1;PMS_P2;Temp;Humidity;BMP_temperature;BMP_pressure;BME280_temperature;BME280_humidity;BME280_pressure;Samples;Min_cycle;Max_cycle;Signal;HPM_P1;HPM_P2
2023/09/16 00:01:57;;;;;;;2.00;0.80;;;;;;;23.97;41.71;99933.09;4477410;32;33518;-72
2023/09/16 00:04:25;;;;;;;3.10;1.23;;;;;;;23.97;41.73;99929.50;4475796;31;32360;-72
2023/09/16 00:06:52;;;;;;;2.05;1.30;;;;;;;23.97;41.64;99935.81;4482965;31;34491;-71
2023/09/16 00:09:20;;;;;;;4.15;2.00;;;;;;;23.99;41.61;99938.38;4482339;31;33490;-71
2023/09/16 00:11:48;;;;;;;3.85;0.73;;;;;;;23.87;41.78;99938.03;4482513;31;34233;-74
2023/09/16 00:14:18;;;;;;;3.40;1.20;;;;;;;23.90;41.95;99933.03;4482232;31;33650;-73
2023/09/16 00:16:46;;;;;;;8.57;1.27;;;;;;;23.90;41.83;99937.66;4482516;31;34032;-72
2023/09/16 00:19:13;;;;;;;2.20;1.30;;;;;;;23.87;41.85;99944.34;4483975;31;34619;-73
2023/09/16 00:21:42;;;;;;;2.45;1.25;;;;;;;23.84;42.10;99939.28;4480917;31;34156;-72
2023/09/16 00:24:12;;;;;;;3.97;1.37;;;;;;;23.81;42.15;99942.41;4481660;31;33720;-72
2023/09/16 00:26:40;;;;;;;3.70;1.42;;;;;;;23.76;42.77;99950.38;4481412;31;33470;-72
2023/09/16 00:29:08;;;;;;;5.15;1.60;;;;;;;23.74;42.78;99935.19;4480131;31;33590;-72
2023/09/16 00:31:37;;;;;;;3.60;0.88;;;;;;;23.74;43.01;99944.22;4480391;31;33819;-71
2023/09/16 00:34:06;;;;;;;3.37;1.15;;;;;;;23.71;43.28;99948.19;4476647;31;34074;-72
2023/09/16 00:36:34;;;;;;;2.53;1.40;;;;;;;23.68;43.46;99947.72;4481895;31;33977;-71
2023/09/16 00:39:01;;;;;;;3.33;1.35;;;;;;;23.49;43.83;99954.66;4468733;31;34560;-71
2023/09/16 00:41:29;;;;;;;1.70;1.12;;;;;;;23.36;44.03;99949.88;4482597;31;35098;-70
2023/09/16 00:43:57;;;;;;;2.50;1.40;;;;;;;23.40;44.18;99953.06;4461639;32;33784;-71
2023/09/16 00:46:24;;;;;;;2.83;1.37;;;;;;;23.33;44.50;99939.34;4454535;32;33545;-71
2023/09/16 00:48:52;;;;;;;1.62;1.40;;;;;;;23.33;44.78;99944.81;4463732;32;34458;-70
2023/09/16 00:51:21;;;;;;;2.87;1.12;;;;;;;23.26;45.44;99949.34;4449636;32;34398;-71
2023/09/16 00:53:49;;;;;;;1.90;1.02;;;;;;;23.31;45.31;99938.72;4464034;32;33484;-70
2023/09/16 00:56:17;;;;;;;10.52;1.37;;;;;;;23.32;45.29;99942.28;4464832;32;33067;-70
2023/09/16 00:58:45;;;;;;;3.87;1.45;;;;;;;23.29;45.36;99938.06;4464643;32;33747;-71
2023/09/16 01:01:14;;;;;;;2.05;1.10;;;;;;;23.23;45.35;99944.28;4460793;32;33630;-71
2023/09/16 01:03:42;;;;;;;2.55;1.55;;;;;;;23.20;45.61;99950.13;4454595;32;33652;-71
2023/09/16 01:06:10;;;;;;;2.78;1.55;;;;;;;23.05;46.19;99947.44;4455133;32;33118;-71
2023/09/16 01:08:38;;;;;;;2.83;1.02;;;;;;;23.06;46.36;99949.13;4438772;32;33967;-71
2023/09/16 01:11:06;;;;;;;1.92;0.88;;;;;;;23.07;46.43;99945.34;4441544;32;33773;-73
2023/09/16 01:13:34;;;;;;;2.80;1.27;;;;;;;23.08;46.67;99947.06;4452397;32;33619;-72
2023/09/16 01:16:26;;;;;;;4.05;1.50;;;;;;;23.08;46.86;99941.59;4476198;32;33570;-73
2023/09/16 01:18:57;;;;;;;3.10;1.42;;;;;;;23.10;47.01;99941.41;4467978;32;33764;-73
2023/09/16 01:21:25;;;;;;;4.30;1.58;;;;;;;23.09;46.92;99942.44;4464052;32;34982;-70
2023/09/16 01:24:19;;;;;;;3.05;1.37;;;;;;;23.09;46.89;99947.91;4450009;32;33605;-70
2023/09/16 01:26:47;;;;;;;2.50;1.40;;;;;;;23.11;46.72;99951.25;4417828;32;33134;-70
2023/09/16 01:29:16;;;;;;;2.03;0.93;;;;;;;23.09;46.79;99940.56;4416406;32;33168;-70
2023/09/16 01:31:45;;;;;;;1.60;1.12;;;;;;;23.09;46.79;99948.75;4417098;32;33841;-70
2023/09/16 01:34:33;;;;;;;3.58;1.27;;;;;;;23.07;46.93;99945.34;4415823;32;34114;-71
2023/09/16 01:37:01;;;;;;;3.65;1.58;;;;;;;23.05;47.12;99941.97;4393698;32;33256;-71
2023/09/16 01:39:29;;;;;;;2.92;1.30;;;;;;;23.01;47.10;99946.94;4401965;32;33615;-71
2023/09/16 01:41:58;;;;;;;2.85;1.55;;;;;;;22.93;47.16;99943.47;4403893;32;35250;-71
2023/09/16 01:44:26;;;;;;;2.35;1.10;;;;;;;22.93;47.26;99944.34;4401959;32;34066;-71
2023/09/16 01:46:57;;;;;;;3.90;1.90;;;;;;;22.91;47.07;99943.62;4403849;32;34228;-72
2023/09/16 01:49:24;;;;;;;6.45;1.40;;;;;;;22.73;46.89;99943.19;4415719;32;33371;-71
2023/09/16 01:51:52;;;;;;;2.85;1.40;;;;;;;22.71;47.05;99943.38;4410316;32;33358;-71
2023/09/16 01:54:20;;;;;;;3.72;1.85;;;;;;;22.68;47.14;99949.22;4416123;32;32380;-71
2023/09/16 01:56:47;;;;;;;2.33;1.35;;;;;;;22.55;47.58;99941.69;4441954;32;34108;-72
2023/09/16 01:59:15;;;;;;;2.58;1.50;;;;;;;22.67;47.53;99943.94;4437222;32;34485;-71
2023/09/16 02:01:43;;;;;;;2.75;1.12;;;;;;;22.71;47.46;99942.53;4437484;32;33776;-71
2023/09/16 02:04:12;;;;;;;1.48;0.85;;;;;;;22.72;47.44;99946.94;4460147;32;33455;-71
2023/09/16 02:06:41;;;;;;;2.33;1.20;;;;;;;22.76;47.62;99951.84;4472754;32;32089;-72
2023/09/16 02:09:09;;;;;;;2.58;1.58;;;;;;;22.77;47.81;99956.25;4466903;32;33559;-71
2023/09/16 02:11:37;;;;;;;3.72;1.85;;;;;;;22.83;47.86;99954.66;4467985;32;34068;-70
2023/09/16 02:14:05;;;;;;;5.22;1.58;;;;;;;22.78;47.65;99951.66;4473291;32;33644;-70
2023/09/16 02:16:33;;;;;;;3.35;1.70;;;;;;;22.83;47.50;99956.56;4469942;32;33263;-71
2023/09/16 02:19:01;;;;;;;4.85;2.25;;;;;;;22.83;47.47;99954.66;4474067;32;34687;-71
2023/09/16 02:21:29;;;;;;;3.03;1.45;;;;;;;22.77;47.64;99953.53;4469096;32;33653;-71
2023/09/16 02:23:57;;;;;;;4.75;1.27;;;;;;;22.71;47.75;99948.84;4471552;32;34925;-71
2023/09/16 02:26:24;;;;;;;4.47;1.65;;;;;;;22.74;47.69;99947.63;4472662;32;34693;-71
2023/09/16 02:28:52;;;;;;;2.53;1.48;;;;;;;22.56;48.17;99937.91;4469463;32;33768;-71
2023/09/16 02:31:19;;;;;;;1.37;0.80;;;;;;;22.62;48.22;99943.66;4465470;32;34085;-71
2023/09/16 02:33:47;;;;;;;3.20;1.45;;;;;;;22.45;48.80;99943.00;4478320;32;33680;-71
2023/09/16 02:36:16;;;;;;;2.20;1.02;;;;;;;22.52;48.63;99943.94;4467577;32;34125;-71
2023/09/16 02:38:44;;;;;;;3.37;1.17;;;;;;;22.41;48.76;99944.41;4468759;32;34982;-71
2023/09/16 02:41:15;;;;;;;3.25;1.48;;;;;;;22.52;48.55;99946.66;4468203;32;33803;-71
2023/09/16 02:43:43;;;;;;;2.53;1.27;;;;;;;22.48;48.55;99943.47;4470054;32;33472;-71
2023/09/16 02:46:11;;;;;;;4.00;1.62;;;;;;;22.41;48.75;99945.25;4468473;32;33127;-71
2023/09/16 02:48:39;;;;;;;3.90;1.40;;;;;;;22.44;48.75;99952.19;4468960;32;33504;-71
2023/09/16 02:51:11;;;;;;;3.03;1.10;;;;;;;22.47;48.71;99949.09;4468793;32;34744;-69
2023/09/16 02:53:39;;;;;;;6.05;1.55;;;;;;;22.48;48.76;99939.91;4474693;32;33989;-69
2023/09/16 02:56:09;;;;;;;2.10;1.23;;;;;;;22.43;48.95;99948.63;4468792;32;33121;-70
2023/09/16 02:58:37;;;;;;;2.45;1.08;;;;;;;22.41;49.16;99942.53;4469006;32;33942;-70
2023/09/16 03:01:08;;;;;;;4.97;1.75;;;;;;;22.42;49.20;99946.94;4456723;32;36804;-70
2023/09/16 03:03:37;;;;;;;3.00;1.65;;;;;;;22.36;49.47;99946.84;4475476;31;35333;-70
2023/09/16 03:06:05;;;;;;;2.72;1.35;;;;;;;22.32;49.66;99943.62;4489300;31;33279;-70
2023/09/16 03:08:33;;;;;;;4.40;1.30;;;;;;;22.35;49.67;99945.16;4478842;31;33941;-70
2023/09/16 03:11:05;;;;;;;3.72;1.55;;;;;;;22.36;49.69;99938.66;4481036;31;34931;-70
2023/09/16 03:13:33;;;;;;;3.05;1.55;;;;;;;22.36;49.76;99941.38;4477642;31;33965;-70
2023/09/16 03:16:18;;;;;;;2.00;1.05;;;;;;;22.32;49.90;99943.62;4476726;31;33286;-70
2023/09/16 03:18:48;;;;;;;1.95;1.37;;;;;;;22.38;49.86;99944.78;4481895;31;34702;-70
2023/09/16 03:21:17;;;;;;;3.45;1.95;;;;;;;22.40;49.84;99942.69;4474652;31;34362;-70
2023/09/16 03:23:45;;;;;;;2.28;1.35;;;;;;;22.45;49.74;99943.84;4477379;31;33429;-70
2023/09/16 03:26:15;;;;;;;2.60;1.45;;;;;;;22.47;49.73;99939.06;4486915;31;34423;-70
2023/09/16 03:28:46;;;;;;;4.18;1.98;;;;;;;22.51;49.66;99940.37;4481958;31;34632;-70
2023/09/16 03:31:15;;;;;;;3.15;1.37;;;;;;;22.46;49.79;99956.44;4488297;31;35825;-70
2023/09/16 03:33:43;;;;;;;2.67;1.65;;;;;;;22.48;49.74;99954.38;4492835;31;33928;-70
2023/09/16 03:36:11;;;;;;;1.62;1.27;;;;;;;22.50;49.83;99954.19;4493725;31;33949;-70
2023/09/16 03:38:47;;;;;;;1.40;0.95;;;;;;;22.53;49.85;99957.38;4482670;32;34966;-70
2023/09/16 03:41:16;;;;;;;2.55;1.45;;;;;;;22.51;49.65;99961.34;4477779;31;34946;-70
2023/09/16 03:43:44;;;;;;;5.22;1.65;;;;;;;22.53;49.49;99957.38;4485302;31;33647;-70
2023/09/16 03:46:16;;;;;;;3.40;1.95;;;;;;;22.47;49.53;99955.41;4491503;31;33513;-70
2023/09/16 03:48:44;;;;;;;3.12;1.52;;;;;;;22.46;49.47;99956.44;4482376;31;33605;-70
2023/09/16 03:51:12;;;;;;;3.40;1.52;;;;;;;22.49;49.43;99950.59;4478083;31;33935;-70
2023/09/16 03:53:40;;;;;;;3.12;1.52;;;;;;;22.53;49.42;99943.72;4484286;31;34723;-70
2023/09/16 03:56:08;;;;;;;2.67;1.87;;;;;;;22.58;49.40;99945.06;4484351;31;33184;-70
2023/09/16 03:58:36;;;;;;;5.35;1.80;;;;;;;22.56;49.51;99946.09;4482995;31;33938;-71
2023/09/16 04:01:04;;;;;;;2.37;1.15;;;;;;;22.50;49.44;99944.12;4476922;31;34473;-71
2023/09/16 04:03:34;;;;;;;2.83;1.50;;;;;;;22.55;49.42;99949.03;4465877;32;33961;-72
2023/09/16 04:06:04;;;;;;;3.83;1.48;;;;;;;22.54;49.50;99950.91;4465805;32;31826;-70
2023/09/16 04:08:32;;;;;;;4.18;1.27;;;;;;;22.47;49.71;99949.97;4469127;32;33420;-71
2023/09/16 04:11:09;;;;;;;5.87;1.45;;;;;;;22.43;49.90;99942.31;4465652;32;35364;-70
2023/09/16 04:13:38;;;;;;;3.35;1.55;;;;;;;22.44;49.82;99939.44;4466728;32;34100;-72
2023/09/16 04:16:05;;;;;;;1.85;0.90;;;;;;;22.41;50.03;99938.97;4470009;32;34715;-73
2023/09/16 04:18:34;;;;;;;2.72;1.15;;;;;;;22.30;49.98;99942.97;4469214;32;33872;-72
2023/09/16 04:21:02;;;;;;;1.92;0.98;;;;;;;22.33;50.02;99943.44;4463206;32;34114;-73
2023/09/16 04:23:31;;;;;;;3.58;1.40;;;;;;;22.28;50.31;99940.44;4465113;32;34337;-73
2023/09/16 04:26:00;;;;;;;4.32;1.35;;;;;;;22.19;50.75;99946.16;4459591;32;31946;-73
2023/09/16 04:28:29;;;;;;;2.42;1.48;;;;;;;22.25;50.52;99950.88;4465873;32;33828;-73
2023/09/16 04:30:58;;;;;;;2.45;1.15;;;;;;;22.34;50.34;99955.19;4474170;32;34169;-71
2023/09/16 04:33:28;;;;;;;7.12;1.65;;;;;;;22.38;50.45;99952.97;4475723;32;33682;-71
2023/09/16 04:35:56;;;;;;;3.83;1.33;;;;;;;22.44;50.35;99966.69;4467065;32;34228;-72
2023/09/16 04:38:24;;;;;;;3.12;1.30;;;;;;;22.43;50.12;99964.97;4456642;32;33738;-73
2023/09/16 04:40:53;;;;;;;5.40;1.85;;;;;;;22.47;49.91;99968.19;4454727;32;34225;-73
2023/09/16 04:43:21;;;;;;;4.12;1.73;;;;;;;22.47;50.27;99963.59;4467358;32;33762;-73
2023/09/16 04:45:49;;;;;;;6.22;1.98;;;;;;;22.43;50.10;99964.97;4467954;32;33106;-73
2023/09/16 04:48:22;;;;;;;2.42;1.20;;;;;;;22.42;50.10;99960.56;4467193;32;33543;-75
2023/09/16 04:50:50;;;;;;;4.00;2.22;;;;;;;22.38;49.93;99955.69;4465542;32;34858;-74
2023/09/16 04:53:18;;;;;;;4.75;2.03;;;;;;;22.42;50.03;99962.47;4466253;32;33849;-72
2023/09/16 04:55:46;;;;;;;6.90;2.25;;;;;;;22.30;50.24;99960.16;4461675;32;34365;-72
2023/09/16 04:58:13;;;;;;;6.03;1.50;;;;;;;22.40;50.11;99968.09;4467234;32;33815;-71
2023/09/16 05:00:41;;;;;;;1.37;0.98;;;;;;;22.47;50.16;99971.78;4461006;32;34056;-71
2023/09/16 05:03:09;;;;;;;4.30;1.70;;;;;;;22.52;49.98;99968.47;4475620;31;33902;-71
2023/09/16 05:05:37;;;;;;;4.12;1.65;;;;;;;22.57;50.00;99966.06;4489448;31;33345;-72
2023/09/16 05:08:05;;;;;;;3.67;1.52;;;;;;;22.51;50.17;99974.97;4478611;31;33760;-72
2023/09/16 05:10:32;;;;;;;4.93;1.25;;;;;;;22.59;50.03;99974.88;4483563;31;35354;-72
2023/09/16 05:13:00;;;;;;;5.47;1.48;;;;;;;22.66;49.58;99964.91;4479650;31;33773;-71
2023/09/16 05:15:28;;;;;;;2.37;1.48;;;;;;;22.69;49.35;99967.25;4481883;31;32987;-72
2023/09/16 05:17:57;;;;;;;4.37;1.92;;;;;;;22.58;48.91;99964.16;4483200;31;32893;-72
2023/09/16 05:20:25;;;;;;;4.07;1.08;;;;;;;22.61;48.97;99974.72;4480691;31;36132;-72
2023/09/16 05:22:53;;;;;;;1.75;1.15;;;;;;;22.68;48.12;99970.19;4482337;31;33451;-71
2023/09/16 05:25:21;;;;;;;3.17;1.67;;;;;;;22.77;47.96;99974.53;4483839;31;33197;-72
2023/09/16 05:27:48;;;;;;;6.07;1.35;;;;;;;22.86;48.37;99970.66;4493355;31;34718;-71
2023/09/16 05:30:16;;;;;;;3.75;1.55;;;;;;;22.88;48.98;99974.03;4483055;31;34981;-74
2023/09/16 05:32:44;;;;;;;2.20;1.08;;;;;;;22.91;48.74;99984.56;4482289;31;34963;-73
2023/09/16 05:35:12;;;;;;;1.62;0.82;;;;;;;22.89;48.87;99978.47;4475692;31;33277;-73
2023/09/16 05:37:40;;;;;;;3.70;1.73;;;;;;;22.85;49.57;99977.13;4471934;31;35433;-74
2023/09/16 05:40:08;;;;;;;5.10;1.45;;;;;;;22.95;49.28;99977.75;4472287;31;34625;-74
2023/09/16 05:42:36;;;;;;;4.00;1.92;;;;;;;22.99;49.32;99973.59;4484194;32;34070;-74
2023/09/16 05:45:04;;;;;;;4.18;1.95;;;;;;;23.00;49.42;99972.56;4482506;31;34306;-73
2023/09/16 05:47:32;;;;;;;3.80;1.40;;;;;;;23.03;49.36;99974.06;4483354;32;35411;-73
2023/09/16 05:50:00;;;;;;;2.58;1.40;;;;;;;23.05;49.19;99973.88;4482020;31;34009;-73
2023/09/16 05:52:28;;;;;;;3.03;1.58;;;;;;;23.06;49.07;99973.69;4482854;32;34382;-72
2023/09/16 05:54:57;;;;;;;5.18;1.42;;;;;;;23.08;48.74;99979.81;4480960;31;33985;-72
2023/09/16 05:57:25;;;;;;;2.95;1.87;;;;;;;23.06;48.25;99976.41;4482181;31;34646;-71
2023/09/16 05:59:52;;;;;;;2.80;1.05;;;;;;;23.10;48.40;99980.44;4487248;31;33400;-72
2023/09/16 06:02:20;;;;;;;2.80;1.20;;;;;;;23.15;48.33;99980.75;4484225;31;33709;-72
2023/09/16 06:04:49;;;;;;;1.67;1.00;;;;;;;23.12;48.41;99978.37;4472108;31;32913;-72
2023/09/16 06:07:17;;;;;;;1.62;0.98;;;;;;;23.20;47.88;99980.16;4485099;31;34756;-72
2023/09/16 06:09:45;;;;;;;6.47;1.62;;;;;;;23.21;47.60;99990.03;4480420;31;33388;-72
2023/09/16 06:12:13;;;;;;;3.45;1.80;;;;;;;23.26;47.37;99993.06;4483806;31;35149;-71
2023/09/16 06:14:40;;;;;;;3.33;1.70;;;;;;;23.28;47.37;99987.41;4477751;31;33541;-72
2023/09/16 06:17:08;;;;;;;3.80;1.40;;;;;;;23.27;47.66;99989.28;4476469;31;33419;-73
2023/09/16 06:19:38;;;;;;;3.10;1.48;;;;;;;23.31;47.45;99989.75;4483780;31;35357;-71
2023/09/16 06:22:09;;;;;;;5.20;1.77;;;;;;;23.35;47.10;99983.72;4490270;31;34598;-72
2023/09/16 06:24:38;;;;;;;3.70;1.50;;;;;;;23.35;46.77;99970.06;4480905;31;34512;-72
2023/09/16 06:27:06;;;;;;;4.32;1.45;;;;;;;23.38;46.25;99969.69;4478711;31;35121;-72
2023/09/16 06:29:33;;;;;;;3.35;1.73;;;;;;;23.45;46.08;99975.22;4481227;31;34207;-72
2023/09/16 06:32:01;;;;;;;4.10;1.67;;;;;;;23.54;45.86;99974.06;4480988;31;34886;-72
2023/09/16 06:34:29;;;;;;;2.40;1.35;;;;;;;23.38;45.84;99969.69;4484359;31;34435;-72
2023/09/16 06:36:59;;;;;;;5.03;1.50;;;;;;;23.42;45.98;99967.41;4479873;31;33794;-72
2023/09/16 06:39:27;;;;;;;3.25;1.58;;;;;;;23.57;45.61;99972.84;4485072;31;35080;-72
2023/09/16 06:41:55;;;;;;;2.17;1.10;;;;;;;23.59;45.66;99966.09;4473963;31;35056;-72
2023/09/16 06:44:26;;;;;;;3.67;2.08;;;;;;;23.66;45.64;99974.41;4481208;31;33029;-72
2023/09/16 06:46:53;;;;;;;1.85;1.12;;;;;;;23.52;45.94;99976.13;4480087;31;34921;-72
2023/09/16 06:49:21;;;;;;;2.00;1.10;;;;;;;23.44;45.73;99974.38;4485862;31;34951;-72
2023/09/16 06:51:49;;;;;;;3.85;1.75;;;;;;;23.42;45.31;99976.44;4479133;31;33526;-72
2023/09/16 06:54:16;;;;;;;2.92;1.77;;;;;;;23.34;45.56;99975.69;4481019;31;34693;-72
2023/09/16 06:56:44;;;;;;;0.88;0.65;;;;;;;23.35;45.86;99969.22;4475609;31;33618;-72
2023/09/16 06:59:11;;;;;;;2.55;1.12;;;;;;;23.37;45.96;99975.31;4478861;31;34155;-72
2023/09/16 07:01:39;;;;;;;7.57;2.08;;;;;;;23.45;45.83;99972.47;4472271;31;34362;-72
2023/09/16 07:04:07;;;;;;;3.50;2.03;;;;;;;23.39;46.09;99992.38;4475531;31;34026;-72
2023/09/16 07:06:35;;;;;;;3.22;1.52;;;;;;;23.34;46.50;99983.88;4474460;31;33630;-72
2023/09/16 07:09:03;;;;;;;3.22;1.55;;;;;;;23.32;46.40;99991.44;4478935;31;34003;-72
2023/09/16 07:11:30;;;;;;;4.75;1.60;;;;;;;23.29;46.83;99992.66;4476553;31;34004;-72
2023/09/16 07:13:58;;;;;;;2.67;1.50;;;;;;;23.55;46.50;99985.81;4475696;31;33860;-72
2023/09/16 07:16:36;;;;;;;4.12;1.62;;;;;;;22.94;47.53;99997.88;4477396;31;34942;-73
2023/09/16 07:19:04;;;;;;;4.10;1.62;;;;;;;23.14;46.08;99992.69;4474521;31;33694;-72
2023/09/16 07:21:31;;;;;;;4.95;1.73;;;;;;;22.10;49.08;99983.50;4479285;31;33687;-72
2023/09/16 07:24:01;;;;;;;3.95;1.98;;;;;;;22.33;48.74;99991.69;4478594;31;34221;-72
2023/09/16 07:26:29;;;;;;;3.47;1.45;;;;;;;22.34;48.10;99985.19;4481516;31;33561;-72
2023/09/16 07:28:57;;;;;;;1.90;1.23;;;;;;;22.47;47.60;99984.53;4481964;31;34124;-72
2023/09/16 07:31:25;;;;;;;3.87;2.12;;;;;;;22.26;48.47;99985.28;4481778;31;33747;-71
2023/09/16 07:33:52;;;;;;;3.05;1.58;;;;;;;22.24;49.19;99990.06;4481174;31;33207;-71
2023/09/16 07:36:20;;;;;;;3.12;1.27;;;;;;;22.26;49.18;99993.47;4476359;31;34331;-71
2023/09/16 07:38:48;;;;;;;2.97;1.73;;;;;;;22.26;49.24;99994.31;4475925;31;35287;-71
2023/09/16 07:41:15;;;;;;;4.40;1.75;;;;;;;22.61;48.41;99999.25;4462399;31;33878;-71
2023/09/16 07:43:43;;;;;;;1.67;0.98;;;;;;;22.76;48.69;100002.81;4478882;31;33421;-72
2023/09/16 07:46:11;;;;;;;4.25;1.33;;;;;;;23.02;47.48;99996.94;4476988;31;33750;-70
2023/09/16 07:48:39;;;;;;;3.75;1.73;;;;;;;23.13;46.72;99990.16;4480961;31;33939;-70
2023/09/16 07:51:07;;;;;;;9.60;2.45;;;;;;;23.07;46.98;99989.03;4481477;31;33784;-71
2023/09/16 07:53:34;;;;;;;5.28;2.75;;;;;;;22.63;48.15;99984.41;4478788;31;33304;-71
2023/09/16 07:56:02;;;;;;;4.07;1.37;;;;;;;22.57;48.20;99985.16;4481888;31;33623;-71
2023/09/16 07:58:30;;;;;;;9.15;2.87;;;;;;;22.09;49.64;99979.09;4477222;31;33900;-72
2023/09/16 08:00:57;;;;;;;3.40;1.98;;;;;;;22.41;49.07;99982.59;4478818;31;34860;-72
2023/09/16 08:03:25;;;;;;;2.85;1.67;;;;;;;22.76;48.47;99984.59;4481911;31;33209;-71
2023/09/16 08:05:53;;;;;;;2.72;1.45;;;;;;;22.48;49.16;99983.53;4482194;31;33984;-72
2023/09/16 08:08:21;;;;;;;5.22;1.95;;;;;;;22.83;47.99;99987.41;4481407;31;34016;-72
2023/09/16 08:10:51;;;;;;;3.00;1.58;;;;;;;22.76;48.30;99976.41;4481260;31;34628;-71
2023/09/16 08:13:18;;;;;;;6.57;1.52;;;;;;;23.13;47.21;99981.97;4476343;31;33499;-71
2023/09/16 08:15:46;;;;;;;4.78;1.87;;;;;;;23.56;46.18;99979.31;4480817;31;34388;-72
2023/09/16 08:18:14;;;;;;;3.35;1.80;;;;;;;23.26;46.81;99987.59;4476571;31;35699;-72
2023/09/16 08:20:42;;;;;;;3.58;2.10;;;;;;;23.33;46.85;99985.78;4481531;31;34504;-72
2023/09/16 08:23:11;;;;;;;4.28;2.33;;;;;;;23.59;46.40;99987.13;4481518;31;32227;-72
2023/09/16 08:25:39;;;;;;;3.08;1.73;;;;;;;23.48;46.79;99992.06;4472810;31;33739;-73
2023/09/16 08:28:07;;;;;;;4.25;2.10;;;;;;;23.26;47.60;99993.06;4481181;31;33783;-72
2023/09/16 08:30:35;;;;;;;4.62;2.15;;;;;;;23.53;46.77;99994.22;4483349;31;33878;-73
2023/09/16 08:33:03;;;;;;;6.07;1.77;;;;;;;23.61;47.03;99985.91;4478179;31;33108;-73
2023/09/16 08:35:30;;;;;;;6.37;2.55;;;;;;;23.21;47.18;99987.31;4482774;32;33538;-71
2023/09/16 08:38:00;;;;;;;5.15;2.22;;;;;;;23.44;47.24;99990.75;4482610;31;33680;-73
2023/09/16 08:40:32;;;;;;;1.70;1.30;;;;;;;23.65;46.33;99989.09;4479932;31;34385;-73
2023/09/16 08:43:12;;;;;;;3.78;2.17;;;;;;;23.72;46.35;99992.75;4480335;31;34093;-72
2023/09/16 08:45:43;;;;;;;4.93;2.42;;;;;;;23.71;46.37;99986.44;4476457;31;34004;-73
2023/09/16 08:48:21;;;;;;;4.47;1.85;;;;;;;23.90;46.24;99982.22;4475866;31;32221;-74
2023/09/16 08:50:50;;;;;;;3.08;1.70;;;;;;;23.90;46.73;99984.97;4476632;31;33674;-74
2023/09/16 08:53:18;;;;;;;3.28;1.85;;;;;;;24.10;46.13;99987.03;4482288;31;32677;-74
2023/09/16 08:55:46;;;;;;;3.45;1.62;;;;;;;24.01;45.88;99986.31;4479318;31;34869;-73
2023/09/16 08:58:14;;;;;;;4.37;1.95;;;;;;;24.49;45.97;99988.44;4462908;31;33666;-72
2023/09/16 09:00:42;;;;;;;2.67;1.55;;;;;;;24.65;45.30;99988.13;4472981;31;33607;-72
2023/09/16 09:03:10;;;;;;;5.15;2.37;;;;;;;24.26;46.08;99986.75;4456814;31;34103;-73
2023/09/16 09:05:38;;;;;;;5.07;2.58;;;;;;;23.77;46.74;99992.19;4479116;31;34439;-72
2023/09/16 09:08:10;;;;;;;3.22;1.83;;;;;;;23.35;47.70;99994.63;4460389;31;34823;-71
2023/09/16 09:10:39;;;;;;;2.95;1.70;;;;;;;24.07;46.21;99979.22;4477947;31;33386;-72
2023/09/16 09:13:12;;;;;;;3.37;1.83;;;;;;;24.30;46.20;99985.34;4461853;32;33996;-72
2023/09/16 09:15:41;;;;;;;4.25;1.52;;;;;;;23.91;46.80;99977.59;4462140;32;34558;-72
2023/09/16 09:18:11;;;;;;;7.05;2.70;;;;;;;23.62;47.25;99984.84;4460459;32;33950;-72
2023/09/16 09:20:38;;;;;;;10.32;3.30;;;;;;;24.13;46.29;99975.72;4459648;32;33613;-72
2023/09/16 09:23:07;;;;;;;4.95;2.17;;;;;;;23.30;48.38;99988.03;4450588;32;37708;-72
2023/09/16 09:25:41;;;;;;;5.60;1.80;;;;;;;24.00;47.01;99978.31;4459691;32;33662;-72
2023/09/16 09:28:10;;;;;;;4.72;2.72;;;;;;;24.15;46.72;99977.22;4459223;32;34203;-72
2023/09/16 09:30:41;;;;;;;5.32;2.83;;;;;;;24.18;46.62;99979.53;4448179;32;33779;-74
2023/09/16 09:33:17;;;;;;;4.93;2.17;;;;;;;24.48;46.09;99975.81;4463514;32;33516;-73
2023/09/16 09:35:45;;;;;;;3.40;1.95;;;;;;;24.41;46.70;99973.03;4461346;32;33721;-74
2023/09/16 09:38:14;;;;;;;4.05;2.25;;;;;;;24.52;45.99;99968.88;4457484;32;35500;-73
2023/09/16 09:40:57;;;;;;;6.07;2.50;;;;;;;24.29;46.58;99972.69;4456035;32;35093;-73
2023/09/16 09:43:29;;;;;;;5.10;2.17;;;;;;;24.35;47.02;99971.88;4462612;32;32650;-73
2023/09/16 09:45:57;;;;;;;16.05;2.35;;;;;;;24.51;46.82;99972.66;4476258;31;33578;-73
2023/09/16 09:48:25;;;;;;;4.28;2.40;;;;;;;24.57;46.58;99980.09;4478379;31;33630;-74
2023/09/16 09:50:53;;;;;;;5.15;2.10;;;;;;;24.13;47.66;99976.53;4475981;31;33692;-74
2023/09/16 09:53:22;;;;;;;4.40;2.30;;;;;;;24.21;47.33;99981.06;4465170;31;33670;-74
2023/09/16 09:55:50;;;;;;;6.07;3.08;;;;;;;23.53;49.29;99982.44;4459920;31;33563;-73
2023/09/16 09:58:18;;;;;;;6.43;3.47;;;;;;;23.35;49.39;99974.69;4478275;31;34624;-74
2023/09/16 10:00:47;;;;;;;3.62;2.15;;;;;;;24.05;48.47;99973.13;4479280;31;33608;-74
2023/09/16 10:03:17;;;;;;;4.37;2.10;;;;;;;24.13;47.60;99972.97;4479326;31;31898;-74
2023/09/16 10:05:45;;;;;;;5.37;2.67;;;;;;;23.87;47.94;99971.69;4479637;31;33431;-74
2023/09/16 10:08:13;;;;;;;3.90;2.33;;;;;;;23.77;48.44;99962.13;4479612;31;33427;-74
2023/09/16 10:10:41;;;;;;;2.20;1.50;;;;;;;23.56;49.31;99968.38;4477572;31;34107;-74
2023/09/16 10:13:09;;;;;;;4.15;2.17;;;;;;;23.92;49.15;99966.50;4464438;32;34964;-73
2023/09/16 10:15:38;;;;;;;4.68;1.90;;;;;;;23.89;48.78;99963.31;4466035;32;33747;-74
2023/09/16 10:18:07;;;;;;;5.10;2.03;;;;;;;24.35;48.17;99960.94;4479304;31;33624;-74
2023/09/16 10:20:39;;;;;;;6.70;2.55;;;;;;;24.00;48.40;99964.66;4479079;31;33233;-74
2023/09/16 10:23:07;;;;;;;5.05;2.25;;;;;;;24.08;48.16;99965.38;4475527;31;32981;-73
2023/09/16 10:25:35;;;;;;;3.22;1.80;;;;;;;24.33;47.53;99965.78;4477967;31;35184;-73
2023/09/16 10:28:08;;;;;;;5.30;2.72;;;;;;;24.56;47.23;99956.50;4464731;31;33654;-73
2023/09/16 10:30:37;;;;;;;4.75;2.25;;;;;;;24.75;46.72;99953.06;4480269;31;33803;-73
2023/09/16 10:33:06;;;;;;;4.62;2.58;;;;;;;24.42;47.29;99957.44;4477860;31;32980;-73
2023/09/16 10:35:37;;;;;;;5.28;2.35;;;;;;;24.86;46.64;99959.84;4479477;31;33905;-74
2023/09/16 10:38:06;;;;;;;4.50;2.45;;;;;;;24.76;46.63;99959.38;4473968;31;33546;-74
2023/09/16 10:40:34;;;;;;;3.95;2.20;;;;;;;24.90;46.74;99955.63;4476918;31;34087;-73
2023/09/16 10:43:02;;;;;;;4.72;2.62;;;;;;;25.02;46.36;99959.50;4461659;32;33332;-74
2023/09/16 10:45:31;;;;;;;4.45;2.25;;;;;;;25.02;46.57;99962.22;4478772;31;33624;-73
2023/09/16 10:48:02;;;;;;;5.72;3.37;;;;;;;25.10;46.01;99955.72;4479865;31;32020;-73
2023/09/16 10:50:36;;;;;;;5.03;2.70;;;;;;;25.34;45.29;99962.63;4477183;31;34247;-74
2023/09/16 10:53:27;;;;;;;6.53;3.05;;;;;;;24.62;46.98;99958.41;4477618;31;34183;-73
2023/09/16 10:56:01;;;;;;;5.82;2.45;;;;;;;24.55;47.86;99960.28;4463220;31;34233;-71
2023/09/16 10:59:01;;;;;;;3.78;1.48;;;;;;;24.96;46.40;99956.72;4461215;32;35715;-74
2023/09/16 11:01:38;;;;;;;8.00;2.25;;;;;;;24.83;47.62;99952.88;4476981;31;34734;-72
2023/09/16 11:04:10;;;;;;;3.97;2.12;;;;;;;25.13;46.76;99943.56;4464623;32;33138;-73
2023/09/16 11:06:38;;;;;;;5.95;3.47;;;;;;;25.39;45.75;99940.06;4480368;31;33787;-74
2023/09/16 11:09:06;;;;;;;4.93;2.47;;;;;;;25.52;45.91;99940.09;4478407;31;34228;-74
2023/09/16 11:11:34;;;;;;;2.65;1.67;;;;;;;25.52;45.87;99948.31;4481368;31;33696;-73
2023/09/16 11:14:02;;;;;;;3.37;1.98;;;;;;;25.55;44.95;99935.06;4478077;31;34146;-73
2023/09/16 11:17:02;;;;;;;6.90;2.20;;;;;;;25.52;45.75;99934.63;4477537;31;34643;-73
2023/09/16 11:19:30;;;;;;;3.30;1.85;;;;;;;25.63;44.95;99936.75;4430191;32;34084;-73
2023/09/16 11:21:58;;;;;;;4.32;2.22;;;;;;;25.12;45.71;99931.75;4432501;32;34609;-73
2023/09/16 11:24:27;;;;;;;5.80;3.17;;;;;;;25.58;45.15;99922.81;4431798;32;34086;-73
2023/09/16 11:26:56;;;;;;;4.20;2.25;;;;;;;25.60;45.21;99926.22;4434258;32;35397;-73
2023/09/16 11:29:25;;;;;;;4.97;2.10;;;;;;;25.52;45.14;99929.12;4417147;32;32835;-73
2023/09/16 11:31:55;;;;;;;4.40;2.90;;;;;;;25.50;45.56;99920.28;4428575;32;33792;-73
2023/09/16 11:34:25;;;;;;;4.82;2.78;;;;;;;25.78;45.43;99918.22;4430846;32;34534;-73
2023/09/16 11:37:03;;;;;;;4.78;2.45;;;;;;;25.66;45.35;99919.91;4423723;32;33573;-73
2023/09/16 11:39:46;;;;;;;2.78;1.83;;;;;;;25.50;45.37;99915.66;4424254;32;33730;-73
2023/09/16 11:42:13;;;;;;;4.82;1.90;;;;;;;25.59;45.80;99919.06;4431898;32;34780;-71
2023/09/16 11:44:41;;;;;;;5.50;2.05;;;;;;;25.52;45.28;99918.16;4433905;32;33447;-73